Salina, UT (84654)

5:54 AM MST on December 07, 2016 (GMT -0700)
Salina--West Fields | | Change Station

Elev 5187 ft 38.96 °N, 111.90 °W | Updated 27 seconds ago

Clear
Clear
19.2 °F
Feels Like 19 °F
N
2.0
Wind Variable Wind from SW
Gusts 2.5 mph

Today
High -- | Low -- °F
--% Chance of Precip.
Yesterday
High -- | Low -- °F
Precip. -- in
Pressure 30.16 in
Visibility 10.0 miles
Clouds Clear
Windchill 19 °F
Dew Point 15 °F
Humidity 83%
Rainfall 0.00 in
Snow Depth Not available.
7:33 AM 5:05 PM
First Quarter, 52% visible
METAR KMLF 071152Z AUTO 35004KT 10SM CLR M12/M15 A3006 RMK AO2 SLP213 T11171150 11056 21117 51014
Pressure 30.16 in
Visibility 10.0 miles
Clouds Clear
Windchill 19 °F
Dew Point 15 °F
Humidity 83%
Rainfall 0.00 in
Snow Depth Not available.
7:33 AM 5:05 PM
First Quarter, 52% visible
METAR KMLF 071152Z AUTO 35004KT 10SM CLR M12/M15 A3006 RMK AO2 SLP213 T11171150 11056 21117 51014

10-Day Weather Forecast

Almanac

Astronomy

Dec. 07, 2016 Rise Set
Actual Time
Civil Twilight
Nautical Twilight
Astronomical Twilight
Moon
Length of Visible Light
Length of Day
Tomorrow will be .
, % of the Moon is Illuminated

Today's Extremes

State Highs State Lows

Community

WunderPhotos

Upload Photos

1,956,112 photos uploaded!

WunderBlog® & News

Nearby

Air Quality

  Air Quality AQ Index Pollutant
Not available.

Snow Depth

Station Depth Elevation

Earthquake Activity

City Distance Mag. Time & Date
Minimum magnitude displayed is 2.5.

Coastal Water Temperatures

Place Temperature

Stations

Nearby Weather Stations

Station Location Temp. Windchill Dew Point Humidity Wind Precip. Elev Updated Type
                   

Watches & Warnings

There are currently no watches in effect.